createdAt,value
2023-04-16T00:01:41.696Z,73.81
2023-04-16T00:04:10.002Z,73.76
2023-04-16T00:06:38.303Z,73.81
2023-04-16T00:09:06.289Z,73.74
2023-04-16T00:11:34.751Z,74.07
2023-04-16T00:14:02.885Z,74.09
2023-04-16T00:16:31.540Z,73.71
2023-04-16T00:18:59.988Z,73.29
2023-04-16T00:21:28.579Z,73.80
2023-04-16T00:23:57.062Z,74.03
2023-04-16T00:26:25.443Z,74.03
2023-04-16T00:28:54.021Z,74.03
2023-04-16T00:31:32.337Z,74.60
2023-04-16T00:34:01.080Z,75.31
2023-04-16T00:36:29.712Z,75.21
2023-04-16T00:38:57.881Z,74.90
2023-04-16T00:41:26.973Z,74.80
2023-04-16T00:43:55.045Z,73.92
2023-04-16T00:46:24.623Z,75.11
2023-04-16T00:48:55.288Z,75.19
2023-04-16T00:51:23.978Z,75.22
2023-04-16T00:53:52.632Z,75.40
2023-04-16T00:56:24.132Z,75.32
2023-04-16T00:58:52.690Z,75.88
2023-04-16T01:01:20.998Z,76.12
2023-04-16T01:03:51.871Z,75.40
2023-04-16T01:06:20.204Z,74.92
2023-04-16T01:08:48.989Z,75.25
2023-04-16T01:11:17.688Z,75.49
2023-04-16T01:13:45.958Z,75.30
2023-04-16T01:16:14.892Z,75.47
2023-04-16T01:18:43.120Z,75.58
2023-04-16T01:21:11.282Z,75.34
2023-04-16T01:23:39.306Z,75.34
2023-04-16T01:26:07.684Z,75.78
2023-04-16T01:28:36.319Z,76.01
2023-04-16T01:31:04.456Z,75.95
2023-04-16T01:33:55.708Z,76.19
2023-04-16T01:36:23.995Z,76.01
2023-04-16T01:38:52.573Z,75.89
2023-04-16T01:41:20.611Z,75.87
2023-04-16T01:43:48.717Z,75.80
2023-04-16T01:46:31.125Z,75.70
2023-04-16T01:48:59.716Z,75.69
2023-04-16T01:51:28.529Z,75.70
2023-04-16T01:53:58.391Z,75.59
2023-04-16T01:56:26.678Z,75.66
2023-04-16T01:58:54.977Z,75.75
2023-04-16T02:01:24.381Z,75.92
2023-04-16T02:03:53.624Z,76.04
2023-04-16T02:06:21.844Z,75.98
2023-04-16T02:08:50.122Z,75.98
2023-04-16T02:11:18.236Z,75.83
2023-04-16T02:13:46.914Z,75.76
2023-04-16T02:16:15.106Z,75.69
2023-04-16T02:19:11.327Z,76.02
2023-04-16T02:21:39.711Z,76.29
2023-04-16T02:24:08.468Z,75.91
2023-04-16T02:26:36.730Z,76.11
2023-04-16T02:29:07.399Z,75.97
2023-04-16T02:31:43.284Z,75.96
2023-04-16T02:34:12.820Z,76.08
2023-04-16T02:36:42.333Z,76.17
2023-04-16T02:39:11.703Z,76.31
2023-04-16T02:41:40.014Z,76.27
2023-04-16T02:44:10.746Z,76.20
2023-04-16T02:46:39.182Z,76.08
2023-04-16T02:49:07.286Z,76.30
2023-04-16T02:51:35.899Z,76.50
2023-04-16T02:54:04.244Z,76.57
2023-04-16T02:56:32.791Z,76.60
2023-04-16T02:59:11.414Z,76.62
2023-04-16T03:01:39.973Z,76.42
2023-04-16T03:04:08.171Z,76.54
2023-04-16T03:06:36.289Z,76.45
2023-04-16T03:09:04.566Z,76.43
2023-04-16T03:11:32.959Z,76.49
2023-04-16T03:14:01.118Z,76.42
2023-04-16T03:16:29.497Z,76.39
2023-04-16T03:18:57.727Z,76.46
2023-04-16T03:21:27.722Z,76.51
2023-04-16T03:23:56.275Z,76.66
2023-04-16T03:26:24.655Z,76.69
2023-04-16T03:28:53.042Z,76.89
2023-04-16T03:31:24.725Z,77.01
2023-04-16T03:33:53.812Z,76.92
2023-04-16T03:36:22.992Z,76.80
2023-04-16T03:38:51.270Z,76.60
2023-04-16T03:41:19.794Z,76.87
2023-04-16T03:43:48.127Z,76.90
2023-04-16T03:46:17.165Z,76.89
2023-04-16T03:48:46.318Z,76.81
2023-04-16T03:51:14.594Z,76.86
2023-04-16T03:53:43.124Z,76.77
2023-04-16T03:56:11.303Z,76.70
2023-04-16T03:58:52.025Z,77.13
2023-04-16T04:01:20.409Z,76.92
2023-04-16T04:03:54.894Z,76.95
2023-04-16T04:06:23.106Z,76.83
2023-04-16T04:08:51.782Z,76.80
2023-04-16T04:11:20.175Z,76.78
2023-04-16T04:13:48.352Z,76.93
2023-04-16T04:16:16.536Z,77.49
2023-04-16T04:18:45.297Z,79.35
2023-04-16T04:21:13.560Z,78.49
2023-04-16T04:23:42.673Z,78.15
2023-04-16T04:26:10.971Z,78.26
2023-04-16T04:28:39.743Z,79.14
2023-04-16T04:31:07.911Z,79.10
2023-04-16T04:33:36.351Z,78.38
2023-04-16T04:36:04.768Z,78.17
2023-04-16T04:38:34.071Z,78.64
2023-04-16T04:41:02.178Z,78.53
2023-04-16T04:43:33.285Z,78.38
2023-04-16T04:46:01.482Z,78.38
2023-04-16T04:48:29.941Z,78.82
2023-04-16T04:50:58.754Z,78.71
2023-04-16T04:53:27.062Z,79.31
2023-04-16T04:55:58.703Z,79.47
2023-04-16T04:58:34.258Z,79.75
2023-04-16T05:01:02.639Z,80.22
2023-04-16T05:03:31.245Z,79.46
2023-04-16T05:05:59.451Z,77.60
2023-04-16T05:08:27.647Z,76.33
2023-04-16T05:10:56.114Z,74.84
2023-04-16T05:13:24.199Z,73.35
2023-04-16T05:15:52.409Z,72.00
2023-04-16T05:18:20.733Z,70.72
2023-04-16T05:20:48.806Z,69.08
2023-04-16T05:23:17.698Z,66.77
2023-04-16T05:25:45.978Z,62.73
2023-04-16T05:28:14.250Z,62.90
2023-04-16T05:30:42.608Z,63.27
2023-04-16T05:33:11.215Z,61.70
2023-04-16T05:35:39.491Z,57.78
2023-04-16T05:38:07.463Z,54.74
2023-04-16T05:40:35.481Z,53.65
2023-04-16T05:43:03.714Z,51.07
2023-04-16T05:45:33.627Z,50.95
2023-04-16T05:48:01.806Z,47.69
2023-04-16T05:50:30.096Z,44.39
2023-04-16T05:52:58.458Z,45.71
2023-04-16T05:55:26.506Z,45.28
2023-04-16T05:57:55.000Z,42.65
2023-04-16T06:00:23.150Z,39.62
2023-04-16T06:02:52.295Z,37.05
2023-04-16T06:05:21.561Z,34.64
2023-04-16T06:07:49.693Z,30.85
2023-04-16T06:10:17.875Z,29.92
2023-04-16T06:12:46.198Z,27.32
2023-04-16T06:15:14.652Z,23.42
2023-04-16T06:17:42.802Z,26.03
2023-04-16T06:20:12.007Z,25.01
2023-04-16T06:22:40.440Z,22.66
2023-04-16T06:25:09.222Z,23.29
2023-04-16T06:27:37.340Z,25.20
2023-04-16T06:30:11.473Z,25.58
2023-04-16T06:32:39.704Z,24.29
2023-04-16T06:35:08.456Z,22.45
2023-04-16T06:37:36.342Z,23.60
2023-04-16T06:40:05.339Z,24.31
2023-04-16T06:42:33.510Z,23.93
2023-04-16T06:45:01.613Z,21.81
2023-04-16T06:47:29.939Z,21.72
2023-04-16T06:49:58.030Z,22.85
2023-04-16T06:52:26.167Z,21.01
2023-04-16T06:54:54.505Z,21.38
2023-04-16T06:57:22.611Z,21.70
2023-04-16T06:59:50.729Z,21.92
2023-04-16T07:02:19.057Z,23.36
2023-04-16T07:04:47.181Z,22.92
2023-04-16T07:07:15.527Z,23.20
2023-04-16T07:09:46.196Z,22.46
2023-04-16T07:12:23.276Z,22.71
2023-04-16T07:14:54.207Z,23.24
2023-04-16T07:17:22.507Z,22.32
2023-04-16T07:19:53.736Z,23.36
2023-04-16T07:22:29.204Z,25.13
2023-04-16T07:24:57.595Z,26.41
2023-04-16T07:27:34.785Z,27.82
2023-04-16T07:30:03.130Z,29.15
2023-04-16T07:32:31.415Z,29.48
2023-04-16T07:34:59.656Z,30.16
2023-04-16T07:37:27.960Z,31.35
2023-04-16T07:39:57.811Z,31.90
2023-04-16T07:42:26.456Z,32.06
2023-04-16T07:44:55.658Z,33.05
2023-04-16T07:47:23.941Z,33.01
2023-04-16T07:49:52.320Z,33.57
2023-04-16T07:52:20.628Z,34.20
2023-04-16T07:54:49.072Z,35.22
2023-04-16T07:57:17.366Z,35.84
2023-04-16T07:59:45.499Z,36.29
2023-04-16T08:02:19.662Z,35.87
2023-04-16T08:04:47.921Z,35.80
2023-04-16T08:07:16.198Z,35.81
2023-04-16T08:09:49.689Z,35.60
2023-04-16T08:12:18.379Z,35.99
2023-04-16T08:14:47.064Z,36.48
2023-04-16T08:17:15.927Z,36.65
2023-04-16T08:19:45.363Z,36.36
2023-04-16T08:22:13.802Z,35.88
2023-04-16T08:24:42.116Z,35.92
2023-04-16T08:27:19.015Z,36.13
2023-04-16T08:29:48.432Z,36.23
2023-04-16T08:32:16.892Z,36.37
2023-04-16T08:34:45.010Z,36.86
2023-04-16T08:37:13.242Z,36.02
2023-04-16T08:39:41.510Z,35.78
2023-04-16T08:42:18.496Z,35.93
2023-04-16T08:44:50.037Z,36.20
2023-04-16T08:47:19.768Z,35.57
2023-04-16T08:49:47.923Z,35.12
2023-04-16T08:52:20.259Z,35.35
2023-04-16T08:54:56.762Z,35.45
2023-04-16T08:57:36.013Z,35.65
2023-04-16T09:00:06.718Z,35.10
2023-04-16T09:02:35.848Z,34.86
2023-04-16T09:05:07.401Z,34.84
2023-04-16T09:07:36.972Z,34.73
2023-04-16T09:10:08.295Z,34.09
2023-04-16T09:12:36.617Z,34.26
2023-04-16T09:15:06.627Z,34.62
2023-04-16T09:17:35.076Z,35.52
2023-04-16T09:20:12.543Z,35.88
2023-04-16T09:22:40.718Z,35.04
2023-04-16T09:25:09.887Z,34.96
2023-04-16T09:27:38.450Z,35.16
2023-04-16T09:30:27.298Z,34.52
2023-04-16T09:33:24.580Z,34.89
2023-04-16T09:35:53.765Z,34.56
2023-04-16T09:38:22.095Z,34.42
2023-04-16T09:41:07.287Z,33.80
2023-04-16T09:43:39.190Z,33.72
2023-04-16T09:46:11.487Z,33.09
2023-04-16T09:48:39.706Z,34.13
2023-04-16T09:51:07.824Z,34.90
2023-04-16T09:53:38.952Z,33.97
2023-04-16T09:56:09.524Z,34.33
2023-04-16T09:58:38.582Z,34.34
2023-04-16T10:01:11.484Z,34.32
2023-04-16T10:03:41.296Z,34.35
2023-04-16T10:06:20.842Z,34.49
2023-04-16T10:08:57.273Z,34.47
2023-04-16T10:11:26.487Z,34.57
2023-04-16T10:13:54.768Z,35.09
2023-04-16T10:16:24.012Z,36.18
2023-04-16T10:18:54.428Z,35.75
2023-04-16T10:21:22.996Z,36.67
2023-04-16T10:23:52.178Z,36.67
2023-04-16T10:26:21.744Z,35.94
2023-04-16T10:28:50.264Z,37.13
2023-04-16T10:31:18.500Z,36.92
2023-04-16T10:33:46.881Z,36.85
2023-04-16T10:36:16.946Z,37.05
2023-04-16T10:38:47.180Z,36.00
2023-04-16T10:41:16.562Z,36.41
2023-04-16T10:43:49.479Z,36.61
2023-04-16T10:46:41.618Z,35.10
2023-04-16T10:49:18.026Z,33.65
2023-04-16T10:51:55.249Z,32.30
2023-04-16T10:54:26.778Z,31.72
2023-04-16T10:57:06.416Z,32.17
2023-04-16T10:59:37.113Z,32.02
2023-04-16T11:02:13.144Z,32.26
2023-04-16T11:04:49.830Z,32.54
2023-04-16T11:07:18.190Z,33.75
2023-04-16T11:10:02.572Z,33.32
2023-04-16T11:12:41.549Z,32.73
2023-04-16T11:15:14.646Z,32.04
2023-04-16T11:17:50.490Z,33.23
2023-04-16T11:20:20.879Z,33.70
2023-04-16T11:22:50.501Z,33.79
2023-04-16T11:25:23.293Z,32.97
2023-04-16T11:27:52.132Z,31.70
2023-04-16T11:30:28.363Z,32.12
2023-04-16T11:32:56.746Z,32.92
2023-04-16T11:35:25.331Z,33.58
2023-04-16T11:37:57.500Z,33.65
2023-04-16T11:40:29.300Z,33.73
2023-04-16T11:43:04.297Z,31.63
2023-04-16T11:45:32.346Z,31.81
2023-04-16T11:48:00.756Z,32.29
2023-04-16T11:50:29.202Z,32.53
2023-04-16T11:53:04.607Z,32.37
2023-04-16T11:55:32.845Z,31.98
2023-04-16T11:58:13.640Z,31.27
2023-04-16T12:00:43.221Z,30.63
2023-04-16T12:03:11.402Z,30.36
2023-04-16T12:05:40.821Z,31.15
2023-04-16T12:08:11.022Z,32.01
2023-04-16T12:10:56.100Z,31.95
2023-04-16T12:13:24.280Z,30.91
2023-04-16T12:15:54.878Z,30.49
2023-04-16T12:18:27.132Z,30.90
2023-04-16T12:20:55.649Z,30.24
2023-04-16T12:23:29.254Z,30.93
2023-04-16T12:26:02.709Z,30.96
2023-04-16T12:28:33.928Z,31.21
2023-04-16T12:31:03.490Z,30.29
2023-04-16T12:33:32.166Z,30.51
2023-04-16T12:36:01.714Z,30.50
2023-04-16T12:38:30.360Z,30.79
2023-04-16T12:40:59.194Z,31.41
2023-04-16T12:43:27.769Z,31.42
2023-04-16T12:45:56.030Z,31.66
2023-04-16T12:48:24.307Z,31.69
2023-04-16T12:50:54.941Z,31.09
2023-04-16T12:53:23.221Z,30.40
2023-04-16T12:55:51.643Z,30.00
2023-04-16T12:58:19.896Z,29.84
2023-04-16T13:00:48.150Z,29.33
2023-04-16T13:03:16.413Z,29.48
2023-04-16T13:05:45.681Z,30.24
2023-04-16T13:08:13.940Z,31.00
2023-04-16T13:10:42.180Z,31.27
2023-04-16T13:13:12.848Z,30.54
2023-04-16T13:15:41.161Z,30.57
2023-04-16T13:18:09.168Z,30.70
2023-04-16T13:20:37.562Z,31.72
2023-04-16T13:23:05.827Z,32.44
2023-04-16T13:25:34.508Z,33.73
2023-04-16T13:28:02.586Z,33.32
2023-04-16T13:30:31.880Z,33.41
2023-04-16T13:33:00.146Z,34.91
2023-04-16T13:35:28.232Z,36.34
2023-04-16T13:37:56.501Z,38.59
2023-04-16T13:40:24.554Z,40.50
2023-04-16T13:42:52.747Z,42.35
2023-04-16T13:45:21.130Z,44.50
2023-04-16T13:47:56.804Z,45.93
2023-04-16T13:50:24.842Z,48.30
2023-04-16T13:52:53.012Z,48.43
2023-04-16T13:55:21.173Z,48.61
2023-04-16T13:57:50.204Z,49.11
2023-04-16T14:00:20.824Z,50.51
2023-04-16T14:02:49.523Z,50.58
2023-04-16T14:05:19.439Z,51.61
2023-04-16T14:07:47.697Z,51.77
2023-04-16T14:10:16.077Z,52.46
2023-04-16T14:12:45.283Z,52.90
2023-04-16T14:15:15.060Z,52.50
2023-04-16T14:17:45.744Z,54.98
2023-04-16T14:20:14.521Z,54.47
2023-04-16T14:22:44.184Z,53.19
2023-04-16T14:25:12.474Z,52.73
2023-04-16T14:27:43.336Z,52.56
2023-04-16T14:30:13.566Z,52.42
2023-04-16T14:32:41.851Z,51.88
2023-04-16T14:35:10.366Z,51.68
2023-04-16T14:37:41.562Z,52.01
2023-04-16T14:40:11.112Z,51.74
2023-04-16T14:42:39.672Z,50.83
2023-04-16T14:45:09.218Z,50.64
2023-04-16T14:47:38.629Z,50.83
2023-04-16T14:50:07.663Z,50.42
2023-04-16T14:52:36.009Z,50.51
2023-04-16T14:55:05.556Z,50.10
2023-04-16T14:57:35.972Z,49.38
2023-04-16T15:00:10.294Z,49.46
2023-04-16T15:02:38.832Z,49.24
2023-04-16T15:05:09.926Z,49.24
2023-04-16T15:07:38.511Z,49.36
2023-04-16T15:10:25.212Z,48.88
2023-04-16T15:12:53.687Z,48.23
2023-04-16T15:15:21.979Z,48.38
2023-04-16T15:17:53.361Z,47.92
2023-04-16T15:20:24.539Z,48.25
2023-04-16T15:22:52.775Z,48.30
2023-04-16T15:25:21.094Z,47.93
2023-04-16T15:27:52.158Z,48.30
2023-04-16T15:30:20.702Z,48.20
2023-04-16T15:32:49.086Z,48.80
2023-04-16T15:35:17.307Z,52.17
2023-04-16T15:37:55.446Z,51.84
2023-04-16T15:40:25.288Z,52.19
2023-04-16T15:42:56.069Z,53.81
2023-04-16T15:45:24.390Z,54.77
2023-04-16T15:47:52.807Z,60.09
2023-04-16T15:50:21.290Z,60.13
2023-04-16T15:52:49.575Z,59.36
2023-04-16T15:55:18.573Z,59.20
2023-04-16T15:57:46.640Z,60.05
2023-04-16T16:00:17.210Z,61.73
2023-04-16T16:02:49.325Z,62.72
2023-04-16T16:05:17.710Z,62.83
2023-04-16T16:07:46.423Z,63.34
2023-04-16T16:10:14.526Z,64.12
2023-04-16T16:12:42.880Z,64.67
2023-04-16T16:15:11.380Z,65.81
2023-04-16T16:17:40.832Z,66.27
2023-04-16T16:20:13.004Z,67.78
2023-04-16T16:22:43.085Z,66.41
2023-04-16T16:25:11.408Z,66.66
2023-04-16T16:27:40.805Z,66.25
2023-04-16T16:30:09.805Z,66.20
2023-04-16T16:32:41.095Z,66.93
2023-04-16T16:35:11.075Z,67.26
2023-04-16T16:37:39.589Z,67.64
2023-04-16T16:40:08.944Z,68.20
2023-04-16T16:42:37.130Z,67.62
2023-04-16T16:45:06.333Z,67.67
2023-04-16T16:47:34.387Z,67.74
2023-04-16T16:50:03.317Z,67.90
2023-04-16T16:52:32.273Z,68.07
2023-04-16T16:55:01.387Z,68.59
2023-04-16T16:57:29.463Z,69.15
2023-04-16T16:59:57.626Z,68.55
2023-04-16T17:02:25.812Z,68.66
2023-04-16T17:04:54.074Z,69.03
2023-04-16T17:07:22.153Z,70.36
2023-04-16T17:09:50.438Z,68.83
2023-04-16T17:12:18.608Z,67.58
2023-04-16T17:14:50.151Z,69.62
2023-04-16T17:17:19.164Z,69.06
2023-04-16T17:19:47.417Z,69.98
2023-04-16T17:22:18.664Z,70.29
2023-04-16T17:24:47.252Z,70.52
2023-04-16T17:27:15.576Z,70.12
2023-04-16T17:29:43.735Z,68.95
2023-04-16T17:32:11.895Z,66.29
2023-04-16T17:34:40.266Z,66.66
2023-04-16T17:37:08.619Z,66.00
2023-04-16T17:39:37.112Z,66.41
2023-04-16T17:42:05.500Z,66.71
2023-04-16T17:44:33.705Z,66.91
2023-04-16T17:47:02.260Z,67.75
2023-04-16T17:49:30.608Z,68.35
2023-04-16T17:51:58.903Z,67.52
2023-04-16T17:54:27.089Z,66.72
2023-04-16T17:56:55.358Z,66.71
2023-04-16T17:59:23.413Z,66.99
2023-04-16T18:01:52.170Z,66.47
2023-04-16T18:04:20.701Z,66.05
2023-04-16T18:06:49.048Z,65.94
2023-04-16T18:09:17.351Z,65.97
2023-04-16T18:11:45.718Z,65.45
2023-04-16T18:14:16.886Z,65.23
2023-04-16T18:16:47.001Z,64.87
2023-04-16T18:19:17.946Z,64.69
2023-04-16T18:21:46.213Z,64.91
2023-04-16T18:24:15.511Z,64.80
2023-04-16T18:26:46.913Z,64.95
2023-04-16T18:29:15.585Z,65.12
2023-04-16T18:31:45.139Z,65.28
2023-04-16T18:34:15.602Z,64.97
2023-04-16T18:36:43.878Z,64.54
2023-04-16T18:39:12.143Z,65.02
2023-04-16T18:41:40.978Z,65.52
2023-04-16T18:44:19.938Z,65.73
2023-04-16T18:46:50.902Z,65.92
2023-04-16T18:49:19.170Z,65.73
2023-04-16T18:51:47.442Z,65.91
2023-04-16T18:54:15.615Z,66.24
2023-04-16T18:56:43.793Z,66.34
2023-04-16T18:59:12.551Z,66.07
2023-04-16T19:01:41.472Z,66.20
2023-04-16T19:04:09.902Z,66.33
2023-04-16T19:06:40.586Z,66.76
2023-04-16T19:09:11.291Z,67.16
2023-04-16T19:11:39.880Z,67.32
2023-04-16T19:14:20.161Z,67.04
2023-04-16T19:16:57.350Z,67.17
2023-04-16T19:19:25.583Z,67.35
2023-04-16T19:21:53.804Z,67.73
2023-04-16T19:24:23.734Z,68.15
2023-04-16T19:26:51.898Z,68.57
2023-04-16T19:29:33.480Z,68.88
2023-04-16T19:32:02.660Z,69.16
2023-04-16T19:34:31.080Z,69.94
2023-04-16T19:36:59.213Z,70.49
2023-04-16T19:39:30.480Z,70.29
2023-04-16T19:41:58.482Z,70.89
2023-04-16T19:44:27.717Z,71.01
2023-04-16T19:46:56.643Z,70.45
2023-04-16T19:49:34.524Z,70.78
2023-04-16T19:52:02.946Z,70.83
2023-04-16T19:54:33.825Z,71.22
2023-04-16T19:57:02.238Z,71.82
2023-04-16T19:59:32.370Z,71.80
2023-04-16T20:02:00.828Z,72.00
2023-04-16T20:04:29.060Z,72.04
2023-04-16T20:06:57.298Z,72.10
2023-04-16T20:09:25.878Z,72.54
2023-04-16T20:11:53.919Z,73.05
2023-04-16T20:14:22.032Z,72.60
2023-04-16T20:16:50.406Z,72.55
2023-04-16T20:19:19.700Z,72.81
2023-04-16T20:21:47.774Z,73.83
2023-04-16T20:24:16.099Z,74.12
2023-04-16T20:26:44.121Z,73.37
2023-04-16T20:29:12.382Z,75.25
2023-04-16T20:31:43.028Z,75.76
2023-04-16T20:34:11.335Z,76.15
2023-04-16T20:36:39.603Z,76.30
2023-04-16T20:39:08.180Z,76.21
2023-04-16T20:41:40.333Z,76.28
2023-04-16T20:44:10.245Z,76.19
2023-04-16T20:46:38.971Z,76.35
2023-04-16T20:49:08.418Z,76.99
2023-04-16T20:51:38.440Z,76.51
2023-04-16T20:54:10.431Z,76.86
2023-04-16T20:56:38.705Z,77.31
2023-04-16T20:59:06.875Z,77.57
2023-04-16T21:01:35.549Z,77.79
2023-04-16T21:04:04.272Z,78.34
2023-04-16T21:06:34.100Z,77.47
2023-04-16T21:09:02.450Z,77.47
2023-04-16T21:11:33.499Z,78.22
2023-04-16T21:14:02.929Z,78.25
2023-04-16T21:16:32.146Z,77.24
2023-04-16T21:19:00.667Z,77.60
2023-04-16T21:21:28.692Z,77.54
2023-04-16T21:23:56.838Z,77.36
2023-04-16T21:26:25.001Z,77.43
2023-04-16T21:28:55.062Z,77.52
2023-04-16T21:31:26.888Z,77.62
2023-04-16T21:34:02.649Z,77.60
2023-04-16T21:36:34.206Z,77.58
2023-04-16T21:39:02.664Z,77.05
2023-04-16T21:41:30.931Z,76.88
2023-04-16T21:43:59.191Z,77.03
2023-04-16T21:46:27.902Z,76.26
2023-04-16T21:48:56.070Z,75.84
2023-04-16T21:51:29.527Z,76.27
2023-04-16T21:53:58.660Z,76.83
2023-04-16T21:56:28.072Z,76.68
2023-04-16T21:58:56.191Z,76.28
2023-04-16T22:01:24.365Z,76.50
2023-04-16T22:03:52.829Z,76.39
2023-04-16T22:06:21.179Z,76.52
2023-04-16T22:08:50.149Z,76.96
2023-04-16T22:11:18.524Z,77.15
2023-04-16T22:13:47.855Z,77.97
2023-04-16T22:16:16.245Z,78.16
2023-04-16T22:18:45.226Z,77.71
2023-04-16T22:21:13.469Z,78.22
2023-04-16T22:23:41.770Z,78.04
2023-04-16T22:26:10.170Z,77.88
2023-04-16T22:28:38.311Z,77.85
2023-04-16T22:31:06.911Z,77.90
2023-04-16T22:33:35.197Z,77.81
2023-04-16T22:36:03.677Z,78.03
2023-04-16T22:38:31.962Z,78.35
2023-04-16T22:41:00.258Z,78.27
2023-04-16T22:43:28.625Z,78.50
2023-04-16T22:46:07.305Z,78.50
2023-04-16T22:48:38.102Z,78.72
2023-04-16T22:51:08.775Z,78.76
2023-04-16T22:53:37.271Z,78.65
2023-04-16T22:56:09.740Z,78.67
2023-04-16T22:58:38.535Z,78.78
2023-04-16T23:01:09.494Z,78.70
2023-04-16T23:03:41.633Z,78.80
2023-04-16T23:06:10.428Z,79.03
2023-04-16T23:09:06.372Z,79.18
2023-04-16T23:11:46.429Z,79.27
2023-04-16T23:14:16.790Z,79.61
2023-04-16T23:16:45.078Z,79.70
2023-04-16T23:19:26.191Z,79.77
2023-04-16T23:21:56.829Z,79.70
2023-04-16T23:24:45.341Z,79.67
2023-04-16T23:27:33.822Z,79.83
2023-04-16T23:30:03.124Z,80.07
2023-04-16T23:32:51.327Z,80.15
2023-04-16T23:35:22.876Z,80.06
2023-04-16T23:37:51.644Z,80.23
2023-04-16T23:40:19.992Z,80.32
2023-04-16T23:42:48.163Z,80.36
2023-04-16T23:45:26.637Z,80.34
2023-04-16T23:47:55.143Z,80.31
2023-04-16T23:50:23.338Z,80.39
2023-04-16T23:52:51.623Z,80.49
2023-04-16T23:55:19.852Z,80.57
2023-04-16T23:57:47.970Z,80.68
